sensor_id;sensor_type;location;lat;lon;timestamp;P1;durP1;ratioP1;P2;durP2;ratioP2
9739;SDS011;4909;42.680;26.324;2023-08-30T00:01:30;502.83;;;462.40;;
9739;SDS011;4909;42.680;26.324;2023-08-30T00:03:57;498.97;;;458.47;;
9739;SDS011;4909;42.680;26.324;2023-08-30T00:06:25;507.67;;;467.07;;
9739;SDS011;4909;42.680;26.324;2023-08-30T00:08:52;501.50;;;461.03;;
9739;SDS011;4909;42.680;26.324;2023-08-30T00:11:19;494.13;;;453.57;;
9739;SDS011;4909;42.680;26.324;2023-08-30T00:13:45;500.47;;;460.10;;
9739;SDS011;4909;42.680;26.324;2023-08-30T00:16:13;500.00;;;459.50;;
9739;SDS011;4909;42.680;26.324;2023-08-30T00:18:41;480.07;;;440.00;;
9739;SDS011;4909;42.680;26.324;2023-08-30T00:21:09;510.27;;;469.67;;
9739;SDS011;4909;42.680;26.324;2023-08-30T00:23:37;480.07;;;440.23;;
9739;SDS011;4909;42.680;26.324;2023-08-30T00:26:04;493.70;;;453.67;;
9739;SDS011;4909;42.680;26.324;2023-08-30T00:28:31;491.47;;;451.40;;
9739;SDS011;4909;42.680;26.324;2023-08-30T00:30:57;500.73;;;460.27;;
9739;SDS011;4909;42.680;26.324;2023-08-30T00:33:24;506.90;;;466.70;;
9739;SDS011;4909;42.680;26.324;2023-08-30T00:35:57;489.23;;;449.17;;
9739;SDS011;4909;42.680;26.324;2023-08-30T00:38:25;484.93;;;445.03;;
9739;SDS011;4909;42.680;26.324;2023-08-30T00:40:54;487.83;;;447.97;;
9739;SDS011;4909;42.680;26.324;2023-08-30T00:43:21;501.13;;;461.10;;
9739;SDS011;4909;42.680;26.324;2023-08-30T00:45:46;501.10;;;461.20;;
9739;SDS011;4909;42.680;26.324;2023-08-30T00:48:14;510.13;;;469.93;;
9739;SDS011;4909;42.680;26.324;2023-08-30T00:50:42;494.27;;;454.40;;
9739;SDS011;4909;42.680;26.324;2023-08-30T00:53:09;478.70;;;438.97;;
9739;SDS011;4909;42.680;26.324;2023-08-30T00:55:37;488.10;;;447.97;;
9739;SDS011;4909;42.680;26.324;2023-08-30T00:58:07;498.30;;;458.27;;
9739;SDS011;4909;42.680;26.324;2023-08-30T01:00:35;495.13;;;455.13;;
9739;SDS011;4909;42.680;26.324;2023-08-30T01:03:03;487.03;;;447.07;;
9739;SDS011;4909;42.680;26.324;2023-08-30T01:05:32;495.43;;;455.10;;
9739;SDS011;4909;42.680;26.324;2023-08-30T01:07:59;490.33;;;450.03;;
9739;SDS011;4909;42.680;26.324;2023-08-30T01:10:27;470.43;;;430.73;;
9739;SDS011;4909;42.680;26.324;2023-08-30T01:13:08;482.43;;;442.33;;
9739;SDS011;4909;42.680;26.324;2023-08-30T01:15:38;486.87;;;446.67;;
9739;SDS011;4909;42.680;26.324;2023-08-30T01:18:07;498.50;;;458.13;;
9739;SDS011;4909;42.680;26.324;2023-08-30T01:20:37;483.93;;;443.73;;
9739;SDS011;4909;42.680;26.324;2023-08-30T01:23:05;490.40;;;449.73;;
9739;SDS011;4909;42.680;26.324;2023-08-30T01:25:39;471.40;;;431.10;;
9739;SDS011;4909;42.680;26.324;2023-08-30T01:28:15;489.43;;;448.50;;
9739;SDS011;4909;42.680;26.324;2023-08-30T01:30:45;487.53;;;446.90;;
9739;SDS011;4909;42.680;26.324;2023-08-30T01:33:13;465.53;;;425.13;;
9739;SDS011;4909;42.680;26.324;2023-08-30T01:35:42;480.23;;;439.83;;
9739;SDS011;4909;42.680;26.324;2023-08-30T01:38:10;474.30;;;433.80;;
9739;SDS011;4909;42.680;26.324;2023-08-30T01:40:37;489.30;;;448.60;;
9739;SDS011;4909;42.680;26.324;2023-08-30T01:43:07;474.93;;;434.57;;
9739;SDS011;4909;42.680;26.324;2023-08-30T01:45:38;482.77;;;442.30;;
9739;SDS011;4909;42.680;26.324;2023-08-30T01:48:07;478.43;;;437.73;;
9739;SDS011;4909;42.680;26.324;2023-08-30T01:50:35;463.97;;;423.90;;
9739;SDS011;4909;42.680;26.324;2023-08-30T01:53:04;476.93;;;436.60;;
9739;SDS011;4909;42.680;26.324;2023-08-30T01:55:31;478.40;;;438.03;;
9739;SDS011;4909;42.680;26.324;2023-08-30T01:57:59;495.03;;;454.40;;
9739;SDS011;4909;42.680;26.324;2023-08-30T02:00:25;461.30;;;421.17;;
9739;SDS011;4909;42.680;26.324;2023-08-30T02:02:53;489.03;;;448.13;;
9739;SDS011;4909;42.680;26.324;2023-08-30T02:05:20;490.23;;;449.53;;
9739;SDS011;4909;42.680;26.324;2023-08-30T02:07:49;481.83;;;441.23;;
9739;SDS011;4909;42.680;26.324;2023-08-30T02:10:21;470.93;;;430.47;;
9739;SDS011;4909;42.680;26.324;2023-08-30T02:12:53;476.20;;;435.90;;
9739;SDS011;4909;42.680;26.324;2023-08-30T02:15:22;489.20;;;448.53;;
9739;SDS011;4909;42.680;26.324;2023-08-30T02:17:51;482.33;;;441.83;;
9739;SDS011;4909;42.680;26.324;2023-08-30T02:20:20;482.63;;;441.70;;
9739;SDS011;4909;42.680;26.324;2023-08-30T02:22:47;473.83;;;433.47;;
9739;SDS011;4909;42.680;26.324;2023-08-30T02:25:13;485.67;;;444.43;;
9739;SDS011;4909;42.680;26.324;2023-08-30T02:27:40;481.80;;;441.23;;
9739;SDS011;4909;42.680;26.324;2023-08-30T02:30:07;466.40;;;426.00;;
9739;SDS011;4909;42.680;26.324;2023-08-30T02:32:34;474.20;;;433.60;;
9739;SDS011;4909;42.680;26.324;2023-08-30T02:35:02;476.97;;;436.53;;
9739;SDS011;4909;42.680;26.324;2023-08-30T02:37:30;473.07;;;432.73;;
9739;SDS011;4909;42.680;26.324;2023-08-30T02:39:56;480.03;;;439.57;;
9739;SDS011;4909;42.680;26.324;2023-08-30T02:42:23;475.90;;;435.53;;
9739;SDS011;4909;42.680;26.324;2023-08-30T02:44:51;482.43;;;441.87;;
9739;SDS011;4909;42.680;26.324;2023-08-30T02:47:18;472.47;;;432.27;;
9739;SDS011;4909;42.680;26.324;2023-08-30T02:49:44;471.60;;;431.40;;
9739;SDS011;4909;42.680;26.324;2023-08-30T02:52:12;487.97;;;447.10;;
9739;SDS011;4909;42.680;26.324;2023-08-30T02:54:39;492.60;;;452.10;;
9739;SDS011;4909;42.680;26.324;2023-08-30T02:57:06;471.90;;;431.60;;
9739;SDS011;4909;42.680;26.324;2023-08-30T02:59:33;484.33;;;444.00;;
9739;SDS011;4909;42.680;26.324;2023-08-30T03:02:00;484.30;;;443.80;;
9739;SDS011;4909;42.680;26.324;2023-08-30T03:04:27;474.73;;;434.53;;
9739;SDS011;4909;42.680;26.324;2023-08-30T03:06:53;461.33;;;421.13;;
9739;SDS011;4909;42.680;26.324;2023-08-30T03:09:22;469.73;;;429.47;;
9739;SDS011;4909;42.680;26.324;2023-08-30T03:11:48;457.30;;;417.47;;
9739;SDS011;4909;42.680;26.324;2023-08-30T03:14:15;478.00;;;437.70;;
9739;SDS011;4909;42.680;26.324;2023-08-30T03:16:42;451.87;;;411.57;;
9739;SDS011;4909;42.680;26.324;2023-08-30T03:19:10;443.63;;;403.90;;
9739;SDS011;4909;42.680;26.324;2023-08-30T03:21:36;441.77;;;402.03;;
9739;SDS011;4909;42.680;26.324;2023-08-30T03:24:04;457.87;;;417.83;;
9739;SDS011;4909;42.680;26.324;2023-08-30T03:26:32;452.33;;;412.20;;
9739;SDS011;4909;42.680;26.324;2023-08-30T03:28:59;466.40;;;425.67;;
9739;SDS011;4909;42.680;26.324;2023-08-30T03:31:26;462.33;;;422.20;;
9739;SDS011;4909;42.680;26.324;2023-08-30T03:33:52;450.90;;;411.10;;
9739;SDS011;4909;42.680;26.324;2023-08-30T03:36:19;466.23;;;425.97;;
9739;SDS011;4909;42.680;26.324;2023-08-30T03:38:46;462.40;;;422.30;;
9739;SDS011;4909;42.680;26.324;2023-08-30T03:41:13;467.07;;;426.37;;
9739;SDS011;4909;42.680;26.324;2023-08-30T03:43:42;460.53;;;420.33;;
9739;SDS011;4909;42.680;26.324;2023-08-30T03:46:08;458.13;;;418.00;;
9739;SDS011;4909;42.680;26.324;2023-08-30T03:48:36;451.10;;;411.47;;
9739;SDS011;4909;42.680;26.324;2023-08-30T03:51:03;461.40;;;421.63;;
9739;SDS011;4909;42.680;26.324;2023-08-30T03:53:30;462.43;;;422.60;;
9739;SDS011;4909;42.680;26.324;2023-08-30T03:55:57;468.73;;;428.63;;
9739;SDS011;4909;42.680;26.324;2023-08-30T03:58:24;464.00;;;424.37;;
9739;SDS011;4909;42.680;26.324;2023-08-30T04:00:52;469.80;;;429.80;;
9739;SDS011;4909;42.680;26.324;2023-08-30T04:03:19;451.17;;;411.50;;
9739;SDS011;4909;42.680;26.324;2023-08-30T04:05:46;447.67;;;407.83;;
9739;SDS011;4909;42.680;26.324;2023-08-30T04:08:13;464.87;;;424.97;;
9739;SDS011;4909;42.680;26.324;2023-08-30T04:10:40;457.50;;;417.70;;
9739;SDS011;4909;42.680;26.324;2023-08-30T04:13:08;463.73;;;423.87;;
9739;SDS011;4909;42.680;26.324;2023-08-30T04:15:35;446.93;;;407.00;;
9739;SDS011;4909;42.680;26.324;2023-08-30T04:18:05;455.03;;;415.33;;
9739;SDS011;4909;42.680;26.324;2023-08-30T04:20:32;459.90;;;419.77;;
9739;SDS011;4909;42.680;26.324;2023-08-30T04:23:00;441.57;;;401.97;;
9739;SDS011;4909;42.680;26.324;2023-08-30T04:25:27;439.73;;;400.33;;
9739;SDS011;4909;42.680;26.324;2023-08-30T04:27:54;440.47;;;400.87;;
9739;SDS011;4909;42.680;26.324;2023-08-30T04:30:21;454.83;;;415.17;;
9739;SDS011;4909;42.680;26.324;2023-08-30T04:32:48;457.43;;;417.17;;
9739;SDS011;4909;42.680;26.324;2023-08-30T04:35:16;462.77;;;423.03;;
9739;SDS011;4909;42.680;26.324;2023-08-30T04:37:43;478.47;;;437.93;;
9739;SDS011;4909;42.680;26.324;2023-08-30T04:40:10;461.37;;;421.57;;
9739;SDS011;4909;42.680;26.324;2023-08-30T04:42:37;477.40;;;437.20;;
9739;SDS011;4909;42.680;26.324;2023-08-30T04:45:06;472.03;;;431.93;;
9739;SDS011;4909;42.680;26.324;2023-08-30T04:47:35;460.60;;;421.10;;
9739;SDS011;4909;42.680;26.324;2023-08-30T04:50:01;457.97;;;418.17;;
9739;SDS011;4909;42.680;26.324;2023-08-30T04:52:30;464.97;;;425.07;;
9739;SDS011;4909;42.680;26.324;2023-08-30T04:54:57;483.27;;;441.93;;
9739;SDS011;4909;42.680;26.324;2023-08-30T04:57:24;471.07;;;429.83;;
9739;SDS011;4909;42.680;26.324;2023-08-30T04:59:51;469.37;;;429.30;;
9739;SDS011;4909;42.680;26.324;2023-08-30T05:02:18;472.57;;;432.50;;
9739;SDS011;4909;42.680;26.324;2023-08-30T05:04:45;466.70;;;426.60;;
9739;SDS011;4909;42.680;26.324;2023-08-30T05:07:11;472.00;;;431.70;;
9739;SDS011;4909;42.680;26.324;2023-08-30T05:09:40;475.17;;;435.00;;
9739;SDS011;4909;42.680;26.324;2023-08-30T05:12:07;457.00;;;417.40;;
9739;SDS011;4909;42.680;26.324;2023-08-30T05:14:34;481.20;;;441.03;;
9739;SDS011;4909;42.680;26.324;2023-08-30T05:17:01;480.57;;;440.23;;
9739;SDS011;4909;42.680;26.324;2023-08-30T05:19:28;461.47;;;421.17;;
9739;SDS011;4909;42.680;26.324;2023-08-30T05:21:56;488.87;;;448.47;;
9739;SDS011;4909;42.680;26.324;2023-08-30T05:24:23;486.43;;;445.97;;
9739;SDS011;4909;42.680;26.324;2023-08-30T05:26:52;478.77;;;438.67;;
9739;SDS011;4909;42.680;26.324;2023-08-30T05:29:19;485.93;;;445.17;;
9739;SDS011;4909;42.680;26.324;2023-08-30T05:31:46;504.73;;;464.23;;
9739;SDS011;4909;42.680;26.324;2023-08-30T05:34:13;493.27;;;452.70;;
9739;SDS011;4909;42.680;26.324;2023-08-30T05:36:40;484.83;;;444.50;;
9739;SDS011;4909;42.680;26.324;2023-08-30T05:39:06;502.17;;;461.27;;
9739;SDS011;4909;42.680;26.324;2023-08-30T05:41:33;491.57;;;451.03;;
9739;SDS011;4909;42.680;26.324;2023-08-30T05:44:01;495.57;;;454.97;;
9739;SDS011;4909;42.680;26.324;2023-08-30T05:46:28;500.40;;;459.80;;
9739;SDS011;4909;42.680;26.324;2023-08-30T05:48:55;501.00;;;460.67;;
9739;SDS011;4909;42.680;26.324;2023-08-30T05:51:22;506.83;;;465.97;;
9739;SDS011;4909;42.680;26.324;2023-08-30T05:53:49;505.10;;;464.57;;
9739;SDS011;4909;42.680;26.324;2023-08-30T05:56:16;504.13;;;463.77;;
9739;SDS011;4909;42.680;26.324;2023-08-30T05:58:43;503.40;;;463.00;;
9739;SDS011;4909;42.680;26.324;2023-08-30T06:01:11;498.10;;;457.10;;
9739;SDS011;4909;42.680;26.324;2023-08-30T06:03:38;496.43;;;456.17;;
9739;SDS011;4909;42.680;26.324;2023-08-30T06:06:05;516.80;;;475.80;;
9739;SDS011;4909;42.680;26.324;2023-08-30T06:08:32;515.13;;;474.00;;
9739;SDS011;4909;42.680;26.324;2023-08-30T06:10:58;520.83;;;479.90;;
9739;SDS011;4909;42.680;26.324;2023-08-30T06:13:25;504.90;;;463.63;;
9739;SDS011;4909;42.680;26.324;2023-08-30T06:15:52;493.00;;;452.50;;
9739;SDS011;4909;42.680;26.324;2023-08-30T06:18:20;506.07;;;465.63;;
9739;SDS011;4909;42.680;26.324;2023-08-30T06:20:47;496.47;;;455.77;;
9739;SDS011;4909;42.680;26.324;2023-08-30T06:23:14;497.87;;;457.47;;
9739;SDS011;4909;42.680;26.324;2023-08-30T06:25:41;495.33;;;455.23;;
9739;SDS011;4909;42.680;26.324;2023-08-30T06:28:08;500.03;;;459.30;;
9739;SDS011;4909;42.680;26.324;2023-08-30T06:30:35;506.13;;;465.53;;
9739;SDS011;4909;42.680;26.324;2023-08-30T06:33:03;495.03;;;454.33;;
9739;SDS011;4909;42.680;26.324;2023-08-30T06:35:31;510.40;;;469.20;;
9739;SDS011;4909;42.680;26.324;2023-08-30T06:37:58;504.60;;;464.13;;
9739;SDS011;4909;42.680;26.324;2023-08-30T06:40:25;493.73;;;453.07;;
9739;SDS011;4909;42.680;26.324;2023-08-30T06:42:51;507.13;;;466.17;;
9739;SDS011;4909;42.680;26.324;2023-08-30T06:45:18;525.57;;;484.43;;
9739;SDS011;4909;42.680;26.324;2023-08-30T06:47:45;520.23;;;479.13;;
9739;SDS011;4909;42.680;26.324;2023-08-30T06:50:14;515.50;;;474.47;;
9739;SDS011;4909;42.680;26.324;2023-08-30T06:52:42;522.30;;;481.43;;
9739;SDS011;4909;42.680;26.324;2023-08-30T06:55:09;515.03;;;474.33;;
9739;SDS011;4909;42.680;26.324;2023-08-30T06:57:36;533.20;;;492.37;;
9739;SDS011;4909;42.680;26.324;2023-08-30T07:00:03;523.50;;;482.43;;
9739;SDS011;4909;42.680;26.324;2023-08-30T07:02:32;522.97;;;482.33;;
9739;SDS011;4909;42.680;26.324;2023-08-30T07:05:00;549.00;;;507.77;;
9739;SDS011;4909;42.680;26.324;2023-08-30T07:07:30;528.13;;;487.30;;
9739;SDS011;4909;42.680;26.324;2023-08-30T07:09:58;543.97;;;502.63;;
9739;SDS011;4909;42.680;26.324;2023-08-30T07:12:25;541.03;;;500.30;;
9739;SDS011;4909;42.680;26.324;2023-08-30T07:14:52;542.40;;;501.50;;
9739;SDS011;4909;42.680;26.324;2023-08-30T07:17:19;556.53;;;515.23;;
9739;SDS011;4909;42.680;26.324;2023-08-30T07:19:46;545.53;;;504.50;;
9739;SDS011;4909;42.680;26.324;2023-08-30T07:22:13;546.00;;;504.67;;
9739;SDS011;4909;42.680;26.324;2023-08-30T07:24:41;555.90;;;514.33;;
9739;SDS011;4909;42.680;26.324;2023-08-30T07:27:10;566.67;;;525.23;;
9739;SDS011;4909;42.680;26.324;2023-08-30T07:29:37;560.07;;;518.50;;
9739;SDS011;4909;42.680;26.324;2023-08-30T07:32:05;554.43;;;513.20;;
9739;SDS011;4909;42.680;26.324;2023-08-30T07:34:32;545.73;;;504.93;;
9739;SDS011;4909;42.680;26.324;2023-08-30T07:36:58;573.50;;;532.23;;
9739;SDS011;4909;42.680;26.324;2023-08-30T07:39:25;568.17;;;526.80;;
9739;SDS011;4909;42.680;26.324;2023-08-30T07:41:52;548.77;;;507.77;;
9739;SDS011;4909;42.680;26.324;2023-08-30T07:44:20;568.90;;;527.43;;
9739;SDS011;4909;42.680;26.324;2023-08-30T07:46:47;574.70;;;533.30;;
9739;SDS011;4909;42.680;26.324;2023-08-30T07:49:14;562.93;;;521.77;;
9739;SDS011;4909;42.680;26.324;2023-08-30T07:51:41;579.03;;;537.70;;
9739;SDS011;4909;42.680;26.324;2023-08-30T07:54:07;587.03;;;545.67;;
9739;SDS011;4909;42.680;26.324;2023-08-30T07:56:34;579.73;;;538.43;;
9739;SDS011;4909;42.680;26.324;2023-08-30T07:59:01;588.13;;;546.63;;
9739;SDS011;4909;42.680;26.324;2023-08-30T08:01:29;598.77;;;557.23;;
9739;SDS011;4909;42.680;26.324;2023-08-30T08:03:56;594.93;;;553.27;;
9739;SDS011;4909;42.680;26.324;2023-08-30T08:06:22;602.43;;;560.67;;
9739;SDS011;4909;42.680;26.324;2023-08-30T08:08:49;623.97;;;582.13;;
9739;SDS011;4909;42.680;26.324;2023-08-30T08:11:16;635.40;;;592.97;;
9739;SDS011;4909;42.680;26.324;2023-08-30T08:13:43;634.00;;;591.83;;
9739;SDS011;4909;42.680;26.324;2023-08-30T08:16:10;629.70;;;587.73;;
9739;SDS011;4909;42.680;26.324;2023-08-30T08:18:39;634.83;;;592.77;;
9739;SDS011;4909;42.680;26.324;2023-08-30T08:21:06;651.30;;;608.73;;
9739;SDS011;4909;42.680;26.324;2023-08-30T08:23:33;643.17;;;601.00;;
9739;SDS011;4909;42.680;26.324;2023-08-30T08:26:00;651.43;;;608.93;;
9739;SDS011;4909;42.680;26.324;2023-08-30T08:28:27;636.57;;;594.13;;
9739;SDS011;4909;42.680;26.324;2023-08-30T08:30:54;656.20;;;613.83;;
9739;SDS011;4909;42.680;26.324;2023-08-30T08:33:21;634.33;;;591.93;;
9739;SDS011;4909;42.680;26.324;2023-08-30T08:35:50;636.80;;;595.00;;
9739;SDS011;4909;42.680;26.324;2023-08-30T08:38:17;630.57;;;588.83;;
9739;SDS011;4909;42.680;26.324;2023-08-30T08:40:44;648.00;;;605.60;;
9739;SDS011;4909;42.680;26.324;2023-08-30T08:43:11;631.83;;;589.83;;
9739;SDS011;4909;42.680;26.324;2023-08-30T08:45:38;640.47;;;598.00;;
9739;SDS011;4909;42.680;26.324;2023-08-30T08:48:05;641.07;;;599.03;;
9739;SDS011;4909;42.680;26.324;2023-08-30T08:50:33;653.50;;;610.93;;
9739;SDS011;4909;42.680;26.324;2023-08-30T08:53:02;653.83;;;611.83;;
9739;SDS011;4909;42.680;26.324;2023-08-30T08:55:30;655.63;;;613.50;;
9739;SDS011;4909;42.680;26.324;2023-08-30T08:57:57;639.60;;;597.57;;
9739;SDS011;4909;42.680;26.324;2023-08-30T09:00:24;651.37;;;609.07;;
9739;SDS011;4909;42.680;26.324;2023-08-30T09:02:52;645.67;;;603.50;;
9739;SDS011;4909;42.680;26.324;2023-08-30T09:05:20;638.07;;;595.97;;
9739;SDS011;4909;42.680;26.324;2023-08-30T09:07:47;635.17;;;593.13;;
9739;SDS011;4909;42.680;26.324;2023-08-30T09:10:19;667.60;;;625.13;;
9739;SDS011;4909;42.680;26.324;2023-08-30T09:12:46;647.67;;;605.37;;
9739;SDS011;4909;42.680;26.324;2023-08-30T09:15:13;653.43;;;611.03;;
9739;SDS011;4909;42.680;26.324;2023-08-30T09:17:41;652.20;;;610.10;;
9739;SDS011;4909;42.680;26.324;2023-08-30T09:20:08;666.57;;;624.17;;
9739;SDS011;4909;42.680;26.324;2023-08-30T09:22:36;650.57;;;608.07;;
9739;SDS011;4909;42.680;26.324;2023-08-30T09:25:03;662.83;;;620.57;;
9739;SDS011;4909;42.680;26.324;2023-08-30T09:27:33;639.57;;;597.53;;
9739;SDS011;4909;42.680;26.324;2023-08-30T09:30:00;651.30;;;609.20;;
9739;SDS011;4909;42.680;26.324;2023-08-30T09:32:26;679.97;;;636.53;;
9739;SDS011;4909;42.680;26.324;2023-08-30T09:34:53;665.67;;;623.13;;
9739;SDS011;4909;42.680;26.324;2023-08-30T09:37:20;657.37;;;614.63;;
9739;SDS011;4909;42.680;26.324;2023-08-30T09:39:50;663.97;;;621.47;;
9739;SDS011;4909;42.680;26.324;2023-08-30T09:42:17;671.87;;;629.10;;
9739;SDS011;4909;42.680;26.324;2023-08-30T09:44:45;667.87;;;625.17;;
9739;SDS011;4909;42.680;26.324;2023-08-30T09:47:12;658.43;;;616.13;;
9739;SDS011;4909;42.680;26.324;2023-08-30T09:49:41;663.20;;;620.73;;
9739;SDS011;4909;42.680;26.324;2023-08-30T09:52:10;667.17;;;624.17;;
9739;SDS011;4909;42.680;26.324;2023-08-30T09:54:41;657.13;;;614.40;;
9739;SDS011;4909;42.680;26.324;2023-08-30T09:57:09;664.13;;;621.57;;
9739;SDS011;4909;42.680;26.324;2023-08-30T09:59:36;661.73;;;618.77;;
9739;SDS011;4909;42.680;26.324;2023-08-30T10:02:06;648.37;;;605.97;;
9739;SDS011;4909;42.680;26.324;2023-08-30T10:04:34;654.50;;;611.83;;
9739;SDS011;4909;42.680;26.324;2023-08-30T10:07:05;654.13;;;611.67;;
9739;SDS011;4909;42.680;26.324;2023-08-30T10:09:33;658.53;;;615.90;;
9739;SDS011;4909;42.680;26.324;2023-08-30T10:12:00;668.60;;;625.63;;
9739;SDS011;4909;42.680;26.324;2023-08-30T10:14:29;653.70;;;610.93;;
9739;SDS011;4909;42.680;26.324;2023-08-30T10:17:00;661.27;;;618.87;;
9739;SDS011;4909;42.680;26.324;2023-08-30T10:19:29;665.77;;;623.47;;
9739;SDS011;4909;42.680;26.324;2023-08-30T10:22:00;661.90;;;619.47;;
9739;SDS011;4909;42.680;26.324;2023-08-30T10:24:29;664.63;;;621.93;;
9739;SDS011;4909;42.680;26.324;2023-08-30T10:26:59;656.43;;;614.13;;
9739;SDS011;4909;42.680;26.324;2023-08-30T10:29:28;668.30;;;625.67;;
9739;SDS011;4909;42.680;26.324;2023-08-30T10:32:01;670.97;;;628.40;;
9739;SDS011;4909;42.680;26.324;2023-08-30T10:34:32;669.23;;;626.43;;
9739;SDS011;4909;42.680;26.324;2023-08-30T10:37:01;662.73;;;620.17;;
9739;SDS011;4909;42.680;26.324;2023-08-30T10:39:35;649.30;;;607.20;;
9739;SDS011;4909;42.680;26.324;2023-08-30T10:42:07;659.27;;;616.97;;
9739;SDS011;4909;42.680;26.324;2023-08-30T10:44:35;645.10;;;603.07;;
9739;SDS011;4909;42.680;26.324;2023-08-30T10:47:17;656.93;;;614.50;;
9739;SDS011;4909;42.680;26.324;2023-08-30T10:49:47;675.47;;;632.77;;
9739;SDS011;4909;42.680;26.324;2023-08-30T10:52:15;660.33;;;617.67;;
9739;SDS011;4909;42.680;26.324;2023-08-30T10:54:42;656.67;;;614.10;;
9739;SDS011;4909;42.680;26.324;2023-08-30T10:57:12;666.20;;;623.40;;
9739;SDS011;4909;42.680;26.324;2023-08-30T10:59:40;666.60;;;623.40;;
9739;SDS011;4909;42.680;26.324;2023-08-30T11:02:13;638.67;;;596.17;;
9739;SDS011;4909;42.680;26.324;2023-08-30T11:04:41;631.40;;;589.47;;
9739;SDS011;4909;42.680;26.324;2023-08-30T11:07:10;647.90;;;605.73;;
9739;SDS011;4909;42.680;26.324;2023-08-30T11:09:37;643.23;;;601.40;;
9739;SDS011;4909;42.680;26.324;2023-08-30T11:12:06;662.17;;;619.53;;
9739;SDS011;4909;42.680;26.324;2023-08-30T11:14:33;646.73;;;604.50;;
9739;SDS011;4909;42.680;26.324;2023-08-30T11:16:59;638.07;;;596.17;;
9739;SDS011;4909;42.680;26.324;2023-08-30T11:19:28;652.73;;;610.53;;
9739;SDS011;4909;42.680;26.324;2023-08-30T11:21:55;647.80;;;605.60;;
9739;SDS011;4909;42.680;26.324;2023-08-30T11:24:24;650.00;;;607.83;;
9739;SDS011;4909;42.680;26.324;2023-08-30T11:26:52;657.33;;;614.93;;
9739;SDS011;4909;42.680;26.324;2023-08-30T11:29:19;652.77;;;610.33;;
9739;SDS011;4909;42.680;26.324;2023-08-30T11:31:46;660.03;;;617.83;;
9739;SDS011;4909;42.680;26.324;2023-08-30T11:34:13;666.03;;;623.73;;
9739;SDS011;4909;42.680;26.324;2023-08-30T11:36:39;667.77;;;624.67;;
9739;SDS011;4909;42.680;26.324;2023-08-30T11:39:06;667.23;;;624.37;;
9739;SDS011;4909;42.680;26.324;2023-08-30T11:41:35;663.33;;;620.77;;
9739;SDS011;4909;42.680;26.324;2023-08-30T11:44:04;682.33;;;639.43;;
9739;SDS011;4909;42.680;26.324;2023-08-30T11:46:31;651.80;;;609.20;;
9739;SDS011;4909;42.680;26.324;2023-08-30T11:48:58;650.70;;;608.00;;
9739;SDS011;4909;42.680;26.324;2023-08-30T11:51:25;664.93;;;622.10;;
9739;SDS011;4909;42.680;26.324;2023-08-30T11:53:52;661.30;;;618.13;;
9739;SDS011;4909;42.680;26.324;2023-08-30T11:56:20;652.60;;;610.33;;
9739;SDS011;4909;42.680;26.324;2023-08-30T11:58:50;652.07;;;608.27;;
9739;SDS011;4909;42.680;26.324;2023-08-30T12:01:17;655.97;;;613.53;;
9739;SDS011;4909;42.680;26.324;2023-08-30T12:03:45;673.70;;;631.07;;
9739;SDS011;4909;42.680;26.324;2023-08-30T12:06:15;665.50;;;622.70;;
9739;SDS011;4909;42.680;26.324;2023-08-30T12:08:42;659.10;;;616.63;;
9739;SDS011;4909;42.680;26.324;2023-08-30T12:11:17;667.67;;;625.03;;
9739;SDS011;4909;42.680;26.324;2023-08-30T12:13:45;672.10;;;628.77;;
9739;SDS011;4909;42.680;26.324;2023-08-30T12:16:16;657.30;;;614.87;;
9739;SDS011;4909;42.680;26.324;2023-08-30T12:18:43;680.17;;;637.47;;
9739;SDS011;4909;42.680;26.324;2023-08-30T12:21:10;665.13;;;622.47;;
9739;SDS011;4909;42.680;26.324;2023-08-30T12:23:40;656.60;;;614.10;;
9739;SDS011;4909;42.680;26.324;2023-08-30T12:26:07;662.83;;;620.43;;
9739;SDS011;4909;42.680;26.324;2023-08-30T12:28:35;656.10;;;613.30;;
9739;SDS011;4909;42.680;26.324;2023-08-30T12:31:03;671.67;;;628.43;;
9739;SDS011;4909;42.680;26.324;2023-08-30T12:33:32;678.33;;;634.63;;
9739;SDS011;4909;42.680;26.324;2023-08-30T12:36:00;666.20;;;623.77;;
9739;SDS011;4909;42.680;26.324;2023-08-30T12:38:27;662.80;;;620.40;;
9739;SDS011;4909;42.680;26.324;2023-08-30T12:40:54;656.37;;;614.07;;
9739;SDS011;4909;42.680;26.324;2023-08-30T12:43:21;656.17;;;613.57;;
9739;SDS011;4909;42.680;26.324;2023-08-30T12:45:49;682.83;;;639.73;;
9739;SDS011;4909;42.680;26.324;2023-08-30T12:48:17;671.33;;;628.43;;
9739;SDS011;4909;42.680;26.324;2023-08-30T12:50:46;667.63;;;625.20;;
9739;SDS011;4909;42.680;26.324;2023-08-30T12:53:14;671.43;;;628.60;;
9739;SDS011;4909;42.680;26.324;2023-08-30T12:55:42;657.80;;;615.07;;
9739;SDS011;4909;42.680;26.324;2023-08-30T12:58:09;671.60;;;628.43;;
9739;SDS011;4909;42.680;26.324;2023-08-30T13:00:37;651.63;;;609.30;;
9739;SDS011;4909;42.680;26.324;2023-08-30T13:03:04;662.53;;;620.17;;
9739;SDS011;4909;42.680;26.324;2023-08-30T13:05:31;673.23;;;630.43;;
9739;SDS011;4909;42.680;26.324;2023-08-30T13:07:59;669.53;;;626.63;;
9739;SDS011;4909;42.680;26.324;2023-08-30T13:10:27;665.23;;;622.70;;
9739;SDS011;4909;42.680;26.324;2023-08-30T13:12:54;682.97;;;639.90;;
9739;SDS011;4909;42.680;26.324;2023-08-30T13:15:22;668.90;;;626.00;;
9739;SDS011;4909;42.680;26.324;2023-08-30T13:17:49;676.50;;;633.70;;
9739;SDS011;4909;42.680;26.324;2023-08-30T13:20:16;679.33;;;636.33;;
9739;SDS011;4909;42.680;26.324;2023-08-30T13:22:42;682.90;;;639.63;;
9739;SDS011;4909;42.680;26.324;2023-08-30T13:25:11;672.43;;;629.93;;
9739;SDS011;4909;42.680;26.324;2023-08-30T13:27:37;669.77;;;627.07;;
9739;SDS011;4909;42.680;26.324;2023-08-30T13:30:05;686.90;;;643.63;;
9739;SDS011;4909;42.680;26.324;2023-08-30T13:32:32;677.10;;;633.50;;
9739;SDS011;4909;42.680;26.324;2023-08-30T13:35:00;669.43;;;626.73;;
9739;SDS011;4909;42.680;26.324;2023-08-30T13:37:27;679.93;;;636.93;;
9739;SDS011;4909;42.680;26.324;2023-08-30T13:39:54;684.73;;;641.17;;
9739;SDS011;4909;42.680;26.324;2023-08-30T13:42:22;663.07;;;620.50;;
9739;SDS011;4909;42.680;26.324;2023-08-30T13:44:52;679.20;;;636.03;;
9739;SDS011;4909;42.680;26.324;2023-08-30T13:47:19;672.10;;;629.20;;
9739;SDS011;4909;42.680;26.324;2023-08-30T13:49:46;675.13;;;632.23;;
9739;SDS011;4909;42.680;26.324;2023-08-30T13:52:13;667.47;;;625.07;;
9739;SDS011;4909;42.680;26.324;2023-08-30T13:54:41;685.37;;;642.43;;
9739;SDS011;4909;42.680;26.324;2023-08-30T13:57:07;667.17;;;624.50;;
9739;SDS011;4909;42.680;26.324;2023-08-30T13:59:35;682.60;;;639.83;;
9739;SDS011;4909;42.680;26.324;2023-08-30T14:02:02;674.10;;;631.00;;
9739;SDS011;4909;42.680;26.324;2023-08-30T14:04:30;677.43;;;634.70;;
9739;SDS011;4909;42.680;26.324;2023-08-30T14:06:59;669.90;;;626.83;;
9739;SDS011;4909;42.680;26.324;2023-08-30T14:09:25;694.40;;;650.40;;
9739;SDS011;4909;42.680;26.324;2023-08-30T14:11:52;684.17;;;640.70;;